This is the latest recevied weather packets stored in our database for station/object KG5WBN. If no packets are shown the sender has not sent any weather packets the latest 10 day(s).
| Time | Temp. | Humidity | Pressure | Rain* | Wind** | Luminosity | Snow |
|---|---|---|---|---|---|---|---|
| 1778018216 | 28.89° C | 42% | 1011.2 hPa | 0 mm | - | 299 W/m² | - |
| 1778017914 | 27.78° C | 45% | 1011.2 hPa | 0 mm | - | 344 W/m² | - |
| 1778017612 | 27.22° C | 44% | 1011.2 hPa | 0 mm | - | 120 W/m² | - |
| 1778017309 | 27.22° C | 44% | 1011.2 hPa | 0 mm | - | 114 W/m² | - |
| 1778017006 | 27.22° C | 44% | 1011.5 hPa | 0 mm | - | 104 W/m² | - |
| 1778016703 | 27.22° C | 42% | 1011.2 hPa | 0 mm | - | 117 W/m² | - |
| 1778016398 | 27.78° C | 42% | 1011.2 hPa | 0 mm | - | 116 W/m² | - |
| 1778016096 | 28.89° C | 41% | 1011.5 hPa | 0 mm | - | 161 W/m² | - |
| 1778015793 | 29.44° C | 39% | 1011.5 hPa | 0 mm | - | 293 W/m² | - |
| 1778015491 | 28.89° C | 39% | 1011.9 hPa | 0 mm | - | 296 W/m² | - |
| 1778015187 | 29.44° C | 38% | 1011.9 hPa | 0 mm | - | 304 W/m² | - |
| 1778014884 | 28.89° C | 39% | 1011.9 hPa | 0 mm | - | 300 W/m² | - |
| 1778014581 | 29.44° C | 38% | 1011.5 hPa | 0 mm | - | 341 W/m² | - |
| 1778014279 | 29.44° C | 39% | 1011.5 hPa | 0 mm | - | 249 W/m² | - |
| 1778013976 | 28.89° C | 40% | 1011.5 hPa | 0 mm | - | 393 W/m² | - |
| 1778013673 | 28.33° C | 40% | 1011.5 hPa | 0 mm | - | 169 W/m² | - |
| 1778013370 | 28.33° C | 40% | 1011.5 hPa | 0 mm | - | 173 W/m² | - |
| 1778013067 | 28.33° C | 40% | 1011.2 hPa | 0 mm | - | 185 W/m² | - |
| 1778012763 | 29.44° C | 37% | 1011.2 hPa | 0 mm | - | 283 W/m² | - |
| 1778012459 | 28.33° C | 39% | 1011.2 hPa | 0 mm | - | 286 W/m² | - |
| 1778012156 | 28.89° C | 37% | 1011.5 hPa | 0 mm | - | 183 W/m² | - |
| 1778011853 | 28.89° C | 36% | 1011.5 hPa | 0 mm | - | 287 W/m² | - |
| 1778011551 | 30° C | 35% | 1011.5 hPa | 0 mm | - | 350 W/m² | - |
| 1778011248 | 28.89° C | 36% | 1011.5 hPa | 0 mm | - | 187 W/m² | - |
| 1778010944 | 30° C | 35% | 1011.5 hPa | 0 mm | - | 257 W/m² | - |
* Rain latest hour (hover to see other rain measurements)
** Current wind speed in m/s (hover to see current wind gust speed)